Time;durP1;ratioP1;P1;durP2;ratioP2;P2;SDS_P1;SDS_P2;PMS_P1;PMS_P2;Temp;Humidity;BMP_temperature;BMP_pressure;BME280_temperature;BME280_humidity;BME280_pressure;Samples;Min_cycle;Max_cycle;Signal;HPM_P1;HPM_P2
2024/03/12 11:51:55;;;;;;;23.40;11.00;;;;;;;4.16;96.67;101488.38;106479;1256;76928;-85
2024/03/12 11:54:47;;;;;;;17.80;9.40;;;;;;;4.20;96.12;101490.40;106983;1256;69887;-82
2024/03/12 11:57:24;;;;;;;19.40;10.20;;;;;;;4.22;95.08;101488.35;107546;1253;72535;-85
2024/03/12 11:59:54;;;;;;;17.80;10.00;;;;;;;4.23;94.36;101487.36;108281;1256;61444;-80
2024/03/12 12:02:23;;;;;;;19.00;11.30;;;;;;;4.24;94.43;101480.66;106268;1253;61459;-84
2024/03/12 12:04:57;;;;;;;19.70;10.40;;;;;;;4.28;94.68;101477.77;106542;1256;76748;-82
2024/03/12 12:07:31;;;;;;;18.40;10.50;;;;;;;4.31;93.60;101477.34;106462;1250;71047;-82
2024/03/12 12:10:07;;;;;;;20.60;11.40;;;;;;;4.33;93.32;101472.09;106336;1258;73872;-86
2024/03/12 12:12:35;;;;;;;19.30;11.00;;;;;;;4.34;93.32;101471.73;106646;1250;61120;-82
2024/03/12 12:15:12;;;;;;;18.00;9.90;;;;;;;4.39;92.38;101474.91;106460;1254;62084;-85
2024/03/12 12:17:48;;;;;;;22.40;10.80;;;;;;;4.40;92.10;101470.65;106616;1253;76520;-85
2024/03/12 12:20:23;;;;;;;23.20;11.00;;;;;;;4.39;91.31;101473.13;106414;1255;68017;-86
2024/03/12 12:22:52;;;;;;;19.40;10.50;;;;;;;4.39;91.47;101467.33;106447;1250;73588;-85
2024/03/12 12:25:20;;;;;;;22.80;10.00;;;;;;;4.39;91.11;101468.63;106511;1253;61484;-80
2024/03/12 12:27:55;;;;;;;23.30;11.10;;;;;;;4.37;91.55;101465.38;106412;1256;61165;-85
2024/03/12 12:30:30;;;;;;;21.20;10.60;;;;;;;4.35;91.81;101466.42;106588;1256;76502;-83
2024/03/12 12:33:00;;;;;;;19.00;10.60;;;;;;;4.35;91.09;101468.80;106586;1250;70501;-85
2024/03/12 12:35:34;;;;;;;22.50;11.40;;;;;;;4.32;90.19;101468.39;106624;1253;73378;-82
2024/03/12 12:38:13;;;;;;;23.00;11.00;;;;;;;4.29;90.28;101469.35;106783;1250;61330;-84
2024/03/12 12:40:47;;;;;;;18.50;9.90;;;;;;;4.29;90.75;101469.19;106377;1250;61230;-82
2024/03/12 12:43:19;;;;;;;17.40;10.30;;;;;;;4.28;91.42;101463.70;106356;1258;77000;-83
2024/03/12 12:45:57;;;;;;;19.80;10.60;;;;;;;4.29;91.48;101466.24;106315;1250;70944;-86
2024/03/12 12:48:34;;;;;;;19.80;10.00;;;;;;;4.29;90.87;101464.02;106570;1253;73956;-82
2024/03/12 12:51:10;;;;;;;18.80;9.90;;;;;;;4.29;90.57;101463.58;106647;1252;62605;-83
2024/03/12 12:53:38;;;;;;;19.40;10.10;;;;;;;4.24;90.64;101463.39;106402;1251;61264;-85
2024/03/12 12:56:12;;;;;;;19.10;10.20;;;;;;;4.24;90.12;101463.59;106455;1257;76557;-83
2024/03/12 12:58:47;;;;;;;17.00;9.40;;;;;;;4.21;89.78;101466.39;106213;1258;69720;-81
2024/03/12 13:01:15;;;;;;;18.00;9.60;;;;;;;4.18;89.17;101471.98;106635;1253;73908;-86
2024/03/12 13:03:50;;;;;;;23.60;12.00;;;;;;;4.16;88.54;101469.36;106251;1258;61194;-83
2024/03/12 13:06:25;;;;;;;26.60;12.60;;;;;;;4.16;88.77;101471.02;106513;1252;62036;-83
2024/03/12 13:09:03;;;;;;;40.10;11.90;;;;;;;4.16;89.48;101475.67;106658;1256;76950;-81
2024/03/12 13:11:33;;;;;;;28.10;10.80;;;;;;;4.15;88.98;101474.68;106488;1250;69842;-86
2024/03/12 13:14:07;;;;;;;24.00;10.40;;;;;;;4.15;88.68;101476.30;106398;1253;74821;-81
2024/03/12 13:16:42;;;;;;;21.60;10.80;;;;;;;4.12;88.97;101473.69;106548;1258;61371;-84
2024/03/12 13:19:18;;;;;;;20.60;10.80;;;;;;;4.11;89.56;101469.70;106545;1257;61160;-81
2024/03/12 13:21:48;;;;;;;20.90;10.80;;;;;;;4.08;88.94;101472.08;106482;1255;76094;-84
2024/03/12 13:24:22;;;;;;;17.20;9.30;;;;;;;4.07;88.33;101467.42;106580;1256;71007;-85
2024/03/12 13:26:57;;;;;;;20.70;9.60;;;;;;;4.07;88.22;101470.50;106536;1254;72177;-84
2024/03/12 13:29:32;;;;;;;20.20;10.30;;;;;;;4.05;88.82;101469.80;106636;1258;61287;-84
2024/03/12 13:32:00;;;;;;;18.20;9.60;;;;;;;4.05;88.83;101468.41;106490;1250;62242;-81
2024/03/12 13:34:35;;;;;;;21.30;10.50;;;;;;;4.01;88.84;101463.64;106505;1256;74398;-85
2024/03/12 13:37:12;;;;;;;18.50;9.70;;;;;;;3.96;89.57;101462.95;106938;1251;69923;-84
2024/03/12 13:39:46;;;;;;;31.50;16.60;;;;;;;3.98;89.23;101464.57;106557;1255;205719;-85
2024/03/12 13:42:14;;;;;;;22.40;12.10;;;;;;;4.00;89.44;101463.35;106365;1256;61358;-82
2024/03/12 13:44:48;;;;;;;19.30;10.40;;;;;;;4.03;88.63;101465.59;106468;1253;61847;-84
2024/03/12 13:47:22;;;;;;;19.90;10.70;;;;;;;4.06;88.74;101466.54;106723;1251;73347;-82
2024/03/12 13:49:56;;;;;;;22.40;11.10;;;;;;;4.07;88.26;101465.33;106771;1253;69726;-84
2024/03/12 13:52:25;;;;;;;19.80;10.40;;;;;;;4.08;88.54;101468.91;106457;1253;75212;-82
2024/03/12 13:54:59;;;;;;;18.50;10.20;;;;;;;4.06;88.48;101467.27;106562;1253;61615;-84
2024/03/12 13:57:33;;;;;;;23.30;12.30;;;;;;;4.08;88.91;101468.09;106540;1252;62049;-83
2024/03/12 14:00:09;;;;;;;22.90;11.20;;;;;;;4.07;89.94;101468.42;106680;1257;76953;-85
2024/03/12 14:02:44;;;;;;;24.50;11.90;;;;;;;4.08;90.31;101467.59;106438;1250;69281;-84
2024/03/12 14:05:18;;;;;;;28.80;12.20;;;;;;;4.06;90.08;101471.63;106407;1253;73825;-83
2024/03/12 14:07:54;;;;;;;21.10;10.40;;;;;;;4.02;90.49;101470.92;106443;1257;61321;-81
2024/03/12 14:10:28;;;;;;;28.10;13.30;;;;;;;4.00;91.69;101473.96;106552;1257;62263;-85
2024/03/12 14:12:56;;;;;;;27.90;11.00;;;;;;;3.93;93.24;101473.35;106545;1258;75970;-85
2024/03/12 14:15:30;;;;;;;22.40;11.20;;;;;;;3.87;95.49;101472.06;106469;1259;71276;-81
2024/03/12 14:18:05;;;;;;;24.90;10.60;;;;;;;3.82;96.31;101470.05;106560;1254;74674;-85
2024/03/12 14:20:34;;;;;;;21.20;11.20;;;;;;;3.77;96.46;101471.45;106439;1253;61662;-85
2024/03/12 14:23:03;;;;;;;29.40;17.80;;;;;;;3.72;97.27;101472.66;106843;1252;62639;-81
2024/03/12 14:25:37;;;;;;;26.40;14.50;;;;;;;3.71;97.85;101470.63;106918;1250;74624;-82
2024/03/12 14:28:11;;;;;;;21.00;11.50;;;;;;;3.74;97.56;101469.92;106710;1250;69573;-81
2024/03/12 14:30:39;;;;;;;16.70;9.10;;;;;;;3.73;97.53;101465.75;106626;1253;73756;-84
2024/03/12 14:33:13;;;;;;;19.80;10.80;;;;;;;3.75;97.15;101465.05;106511;1254;61361;-81
2024/03/12 14:35:47;;;;;;;21.20;11.10;;;;;;;3.77;97.07;101463.45;106523;1253;61414;-81
2024/03/12 14:38:21;;;;;;;27.50;15.40;;;;;;;3.78;96.94;101464.17;106522;1251;76044;-83
2024/03/12 14:40:49;;;;;;;36.70;20.50;;;;;;;3.76;96.79;101459.18;106695;1253;70607;-85
2024/03/12 14:43:25;;;;;;;26.90;11.80;;;;;;;3.79;96.20;101459.39;106596;1257;74735;-85
2024/03/12 14:45:59;;;;;;;25.60;12.50;;;;;;;3.81;95.45;101456.27;106464;1256;61342;-84
2024/03/12 14:48:33;;;;;;;18.60;9.70;;;;;;;3.84;95.15;101453.36;106478;1251;61571;-81
2024/03/12 14:51:02;;;;;;;18.10;9.90;;;;;;;3.89;93.54;101446.27;106348;1258;75566;-84
2024/03/12 14:53:36;;;;;;;22.60;10.30;;;;;;;3.92;92.52;101448.39;106423;1258;70332;-84
2024/03/12 14:56:09;;;;;;;22.20;12.40;;;;;;;3.96;91.68;101445.48;106553;1255;73824;-81
2024/03/12 14:58:43;;;;;;;18.60;10.00;;;;;;;3.98;90.63;101446.21;106365;1253;61403;-82
2024/03/12 15:01:11;;;;;;;19.50;10.70;;;;;;;4.01;87.77;101446.38;106632;1253;62011;-82
2024/03/12 15:03:45;;;;;;;17.20;9.00;;;;;;;4.04;85.78;101443.62;106530;1258;75450;-84
2024/03/12 15:06:19;;;;;;;19.30;9.20;;;;;;;4.08;84.79;101440.90;106585;1256;70906;-80
2024/03/12 15:08:48;;;;;;;18.20;9.60;;;;;;;4.10;84.02;101438.86;106330;1253;75007;-85
2024/03/12 15:11:21;;;;;;;23.10;11.10;;;;;;;4.09;83.11;101432.04;106687;1252;61315;-81
2024/03/12 15:13:55;;;;;;;24.90;11.10;;;;;;;4.09;82.60;101424.34;106494;1250;62399;-83
2024/03/12 15:16:30;;;;;;;19.20;9.60;;;;;;;4.14;82.11;101414.89;106535;1257;75963;-81
2024/03/12 15:18:58;;;;;;;18.00;10.40;;;;;;;4.14;81.47;101410.35;106632;1256;70717;-81
2024/03/12 15:21:32;;;;;;;21.10;10.70;;;;;;;4.17;81.55;101408.88;106605;1250;76437;-85
2024/03/12 15:24:06;;;;;;;18.00;9.60;;;;;;;4.16;82.42;101410.23;106550;1254;61275;-84
2024/03/12 15:26:40;;;;;;;20.00;10.60;;;;;;;4.17;82.89;101410.41;106633;1254;61253;-84
2024/03/12 15:29:09;;;;;;;23.80;12.90;;;;;;;4.19;83.90;101417.20;106549;1253;75717;-86
2024/03/12 15:31:45;;;;;;;21.90;10.90;;;;;;;4.17;84.96;101422.38;106661;1257;69380;-82
2024/03/12 15:34:19;;;;;;;28.90;14.50;;;;;;;4.15;85.09;101422.66;106584;1257;74746;-83
2024/03/12 15:36:54;;;;;;;26.50;11.30;;;;;;;4.15;85.63;101423.24;106960;1253;61194;-84
2024/03/12 15:39:23;;;;;;;20.80;11.20;;;;;;;4.14;85.41;101425.48;106565;1256;62673;-86
2024/03/12 15:41:58;;;;;;;26.90;13.10;;;;;;;4.14;85.38;101422.99;106582;1257;76967;-83
2024/03/12 15:44:32;;;;;;;23.50;12.00;;;;;;;4.09;85.00;101424.73;106552;1254;71114;-82
2024/03/12 15:47:06;;;;;;;22.60;11.40;;;;;;;4.08;84.68;101429.92;106616;1254;73065;-82
2024/03/12 15:49:34;;;;;;;21.20;11.70;;;;;;;4.05;84.68;101424.93;106453;1253;61332;-82
